Time;durP1;ratioP1;P1;durP2;ratioP2;P2;SDS_P1;SDS_P2;PMS_P1;PMS_P2;Temp;Humidity;BMP_temperature;BMP_pressure;BME280_temperature;BME280_humidity;BME280_pressure;Samples;Min_cycle;Max_cycle;Signal;HPM_P1;HPM_P2
2021/03/28 00:00:49;;;;;;;1.85;0.50;;;22.50;30.30;;;;;;5098282;28;20381;-57
2021/03/28 00:03:21;;;;;;;1.40;0.50;;;22.50;30.40;;;;;;5101681;28;21087;-57
2021/03/28 00:05:47;;;;;;;1.90;0.50;;;22.50;30.50;;;;;;5101276;28;20401;-57
2021/03/28 00:08:13;;;;;;;2.20;0.52;;;22.50;30.40;;;;;;5097923;28;20390;-57
2021/03/28 00:10:45;;;;;;;1.27;0.50;;;22.50;30.50;;;;;;5099517;28;20767;-57
2021/03/28 00:13:19;;;;;;;1.40;0.50;;;22.50;30.90;;;;;;5100373;28;20390;-57
2021/03/28 00:16:02;;;;;;;2.70;0.60;;;22.50;31.00;;;;;;5100383;28;20393;-57
2021/03/28 00:18:32;;;;;;;1.13;0.50;;;22.50;31.10;;;;;;5103977;28;20401;-58
2021/03/28 00:21:11;;;;;;;1.00;0.50;;;22.50;31.00;;;;;;5110753;28;20404;-57
2021/03/28 00:23:50;;;;;;;1.25;0.60;;;22.60;31.10;;;;;;5111749;28;20859;-58
2021/03/28 00:27:27;;;;;;;2.38;0.60;;;22.50;31.00;;;;;;5110384;28;20418;-59
2021/03/28 00:30:01;;;;;;;1.70;0.63;;;22.50;30.70;;;;;;4974070;28;20758;-58
2021/03/28 00:33:08;;;;;;;1.05;0.60;;;22.50;30.70;;;;;;5095990;28;20396;-58
2021/03/28 00:35:55;;;;;;;1.25;0.63;;;22.60;30.70;;;;;;5108169;28;20792;-58
2021/03/28 00:38:36;;;;;;;0.93;0.52;;;22.60;30.70;;;;;;5115436;28;20422;-58
2021/03/28 00:41:06;;;;;;;1.60;0.60;;;22.60;30.60;;;;;;5115603;28;20457;-57
2021/03/28 00:44:03;;;;;;;1.80;0.50;;;22.50;30.60;;;;;;5115602;28;20410;-57
2021/03/28 00:46:40;;;;;;;1.60;0.70;;;22.50;30.50;;;;;;5114997;28;20388;-57
2021/03/28 00:49:09;;;;;;;1.60;0.60;;;22.50;30.60;;;;;;5115990;28;20396;-57
2021/03/28 00:51:42;;;;;;;1.63;0.70;;;22.50;30.70;;;;;;5115714;28;20380;-57
2021/03/28 00:54:19;;;;;;;2.37;0.60;;;22.50;30.80;;;;;;5115740;28;20388;-57
2021/03/28 00:56:46;;;;;;;1.40;0.52;;;22.50;30.90;;;;;;5115248;28;20910;-57
2021/03/28 00:59:30;;;;;;;1.38;0.70;;;22.50;30.90;;;;;;5115890;28;20402;-57
2021/03/28 01:02:02;;;;;;;2.13;0.50;;;22.50;30.80;;;;;;5115276;27;20571;-57
2021/03/28 01:04:37;;;;;;;1.20;0.70;;;22.50;30.70;;;;;;5114921;28;20871;-57
2021/03/28 01:07:41;;;;;;;1.17;0.50;;;22.50;30.70;;;;;;5115349;28;20388;-57
2021/03/28 01:10:43;;;;;;;1.73;0.60;;;22.50;30.70;;;;;;5115339;28;20855;-57
2021/03/28 01:13:43;;;;;;;1.30;0.68;;;22.50;30.60;;;;;;5115227;28;20929;-58
2021/03/28 01:16:19;;;;;;;1.92;0.80;;;22.40;30.50;;;;;;5113326;28;20731;-58
2021/03/28 01:19:15;;;;;;;1.70;0.68;;;22.40;30.50;;;;;;5114591;28;20479;-56
2021/03/28 01:22:10;;;;;;;1.08;0.50;;;22.40;30.50;;;;;;5114914;28;20408;-57
2021/03/28 01:24:50;;;;;;;1.80;0.60;;;22.40;30.50;;;;;;5114578;28;20384;-57
2021/03/28 01:27:27;;;;;;;1.20;0.52;;;22.40;30.40;;;;;;5114899;28;20444;-57
2021/03/28 01:29:58;;;;;;;0.95;0.40;;;22.40;30.40;;;;;;5113682;28;20397;-57
2021/03/28 01:32:30;;;;;;;1.02;0.40;;;22.40;30.40;;;;;;5114364;28;20455;-57
2021/03/28 01:35:09;;;;;;;1.20;0.52;;;22.40;30.40;;;;;;5113792;28;20396;-57
2021/03/28 01:38:08;;;;;;;1.23;0.60;;;22.40;30.30;;;;;;5113526;28;20380;-57
2021/03/28 01:40:40;;;;;;;1.25;0.50;;;22.30;30.30;;;;;;5114056;28;20396;-57
2021/03/28 01:43:30;;;;;;;1.23;0.60;;;22.30;30.30;;;;;;5114486;28;20408;-57
2021/03/28 01:46:05;;;;;;;1.00;0.60;;;22.30;30.20;;;;;;5113797;28;20377;-57
2021/03/28 01:48:56;;;;;;;0.88;0.50;;;22.30;30.30;;;;;;5114121;28;20875;-56
2021/03/28 01:51:34;;;;;;;1.23;0.60;;;22.30;30.20;;;;;;5113214;28;20880;-57
2021/03/28 01:54:31;;;;;;;1.10;0.60;;;22.30;30.20;;;;;;5114464;28;20387;-57
2021/03/28 01:57:02;;;;;;;1.55;0.85;;;22.30;30.30;;;;;;5114477;27;20456;-56
2021/03/28 01:59:49;;;;;;;1.00;0.60;;;22.30;30.20;;;;;;5114476;28;20429;-57
2021/03/28 02:02:30;;;;;;;1.10;0.60;;;22.30;30.20;;;;;;5113873;28;20750;-57
2021/03/28 02:05:20;;;;;;;1.70;0.60;;;22.30;30.20;;;;;;5114302;28;20399;-57
2021/03/28 02:07:58;;;;;;;1.33;0.63;;;22.30;30.20;;;;;;5114299;27;20456;-57
2021/03/28 02:10:47;;;;;;;1.30;0.70;;;22.30;30.20;;;;;;5113838;28;20396;-57
2021/03/28 02:13:40;;;;;;;0.90;0.60;;;22.20;30.10;;;;;;5114088;28;20407;-57
2021/03/28 02:16:47;;;;;;;1.52;0.77;;;22.20;30.10;;;;;;5114085;28;20384;-57
2021/03/28 02:19:21;;;;;;;1.23;0.60;;;22.20;30.10;;;;;;5105522;28;20736;-57
2021/03/28 02:21:47;;;;;;;1.30;0.70;;;22.20;30.10;;;;;;5113957;28;20503;-57
2021/03/28 02:24:20;;;;;;;0.98;0.70;;;22.20;30.10;;;;;;5113869;28;20455;-57
2021/03/28 02:27:07;;;;;;;1.20;0.70;;;22.20;30.10;;;;;;5113699;28;20404;-57
2021/03/28 02:30:05;;;;;;;1.20;0.57;;;22.20;30.10;;;;;;5113774;28;20384;-57
2021/03/28 02:33:08;;;;;;;1.02;0.60;;;22.20;30.10;;;;;;5113305;28;20379;-57
2021/03/28 02:35:53;;;;;;;1.60;0.80;;;22.20;30.00;;;;;;5113632;28;20482;-57
2021/03/28 02:38:40;;;;;;;0.90;0.50;;;22.20;30.10;;;;;;5113384;28;20380;-58
2021/03/28 02:41:18;;;;;;;1.25;0.60;;;22.20;30.10;;;;;;5113514;28;20500;-57
2021/03/28 02:44:26;;;;;;;1.10;0.70;;;22.20;30.10;;;;;;5113432;28;20408;-57
2021/03/28 02:46:56;;;;;;;1.38;0.70;;;22.20;30.10;;;;;;5050056;28;20796;-57
2021/03/28 02:49:49;;;;;;;1.42;0.90;;;22.10;30.00;;;;;;5050033;28;20903;-57
2021/03/28 02:52:31;;;;;;;1.40;0.73;;;22.10;30.00;;;;;;5092682;28;20392;-58
2021/03/28 02:55:44;;;;;;;1.40;0.70;;;22.20;30.00;;;;;;5113341;28;20381;-57
2021/03/28 02:58:25;;;;;;;1.10;0.60;;;22.10;30.00;;;;;;5050419;28;20869;-57
2021/03/28 03:00:56;;;;;;;1.10;0.60;;;22.10;30.00;;;;;;5049684;28;20397;-57
2021/03/28 03:03:49;;;;;;;1.20;0.60;;;22.10;30.00;;;;;;5092121;28;20855;-56
2021/03/28 03:06:47;;;;;;;2.00;0.90;;;22.10;30.00;;;;;;5113081;28;20377;-57
2021/03/28 03:09:34;;;;;;;1.15;0.77;;;22.20;30.00;;;;;;5112939;28;20778;-57
2021/03/28 03:12:12;;;;;;;1.38;0.80;;;22.10;30.00;;;;;;5113299;28;20459;-57
2021/03/28 03:15:14;;;;;;;1.45;0.90;;;22.10;30.00;;;;;;5112566;28;20388;-57
2021/03/28 03:17:58;;;;;;;1.30;0.75;;;22.10;30.00;;;;;;5112954;28;20438;-56
2021/03/28 03:20:23;;;;;;;1.42;0.80;;;22.10;30.00;;;;;;5112629;28;20430;-56
2021/03/28 03:23:08;;;;;;;1.30;0.70;;;22.10;30.00;;;;;;5112480;28;20912;-56
2021/03/28 03:26:07;;;;;;;1.58;0.80;;;22.10;30.00;;;;;;5112702;28;20385;-56
2021/03/28 03:29:08;;;;;;;1.55;0.75;;;22.10;30.00;;;;;;5112190;28;20380;-57
2021/03/28 03:31:37;;;;;;;1.63;0.90;;;22.10;30.00;;;;;;5112591;28;20385;-56
2021/03/28 03:34:36;;;;;;;1.30;0.80;;;22.10;30.00;;;;;;5112635;28;20380;-57
2021/03/28 03:37:19;;;;;;;1.30;0.70;;;22.00;30.00;;;;;;5112538;28;20728;-57
2021/03/28 03:39:54;;;;;;;1.52;0.80;;;22.00;30.00;;;;;;5111286;28;20450;-57
2021/03/28 03:43:07;;;;;;;1.60;0.77;;;22.00;30.00;;;;;;5112396;28;20894;-57
2021/03/28 03:45:39;;;;;;;1.58;0.80;;;22.00;30.00;;;;;;5065126;28;20453;-57
2021/03/28 03:48:12;;;;;;;1.50;0.82;;;22.00;30.00;;;;;;5112286;28;20376;-57
2021/03/28 03:51:08;;;;;;;1.50;0.80;;;22.00;30.00;;;;;;5111898;28;20380;-57
2021/03/28 03:53:56;;;;;;;1.10;0.70;;;22.00;30.00;;;;;;5112135;28;20384;-57
2021/03/28 03:57:03;;;;;;;1.48;0.80;;;22.00;30.00;;;;;;5110052;28;20450;-57
2021/03/28 04:00:03;;;;;;;1.40;0.80;;;22.00;30.00;;;;;;5091830;28;20499;-58
2021/03/28 04:03:07;;;;;;;1.40;0.80;;;22.00;29.90;;;;;;5091069;28;20414;-57
2021/03/28 04:05:53;;;;;;;1.95;0.80;;;22.00;29.90;;;;;;5091120;28;20410;-57
2021/03/28 04:09:04;;;;;;;1.60;0.90;;;22.00;29.90;;;;;;5091138;28;20386;-57
2021/03/28 04:11:35;;;;;;;1.40;0.75;;;22.00;29.90;;;;;;5091707;28;20382;-57
2021/03/28 04:14:25;;;;;;;1.27;0.90;;;22.00;29.90;;;;;;5091386;28;20382;-59
2021/03/28 04:17:28;;;;;;;1.40;0.68;;;21.90;29.90;;;;;;5091473;28;20808;-57
2021/03/28 04:19:59;;;;;;;1.60;0.70;;;22.00;29.90;;;;;;5091910;28;20435;-57
2021/03/28 04:22:39;;;;;;;1.60;0.80;;;21.90;29.90;;;;;;5091262;28;20448;-58
2021/03/28 04:25:23;;;;;;;1.23;0.70;;;21.90;29.90;;;;;;5090300;28;20397;-59
2021/03/28 04:27:58;;;;;;;1.40;0.80;;;22.00;29.90;;;;;;5091534;28;20382;-57
2021/03/28 04:31:12;;;;;;;1.30;0.70;;;21.90;29.80;;;;;;5091088;28;20382;-57
2021/03/28 04:33:49;;;;;;;1.15;0.80;;;21.90;29.80;;;;;;5088879;28;20517;-57
2021/03/28 04:36:36;;;;;;;1.63;0.70;;;21.90;29.80;;;;;;5091312;28;20382;-57
2021/03/28 04:39:36;;;;;;;1.17;0.70;;;21.90;29.80;;;;;;5091349;28;20386;-57
2021/03/28 04:42:39;;;;;;;1.77;0.70;;;21.90;29.80;;;;;;5091212;28;20409;-57
2021/03/28 04:45:23;;;;;;;1.00;0.60;;;21.90;29.80;;;;;;5090044;28;20410;-57
2021/03/28 04:47:57;;;;;;;1.70;0.63;;;21.90;29.90;;;;;;5091278;28;20370;-57
2021/03/28 04:50:37;;;;;;;1.20;0.60;;;21.90;29.80;;;;;;5091286;28;20386;-57
2021/03/28 04:53:41;;;;;;;1.50;0.73;;;21.90;29.80;;;;;;5091316;28;20883;-57
2021/03/28 04:56:37;;;;;;;1.57;0.80;;;21.90;29.80;;;;;;5088951;28;20923;-56
2021/03/28 04:59:27;;;;;;;1.20;0.70;;;21.90;29.80;;;;;;5089115;28;20397;-56
2021/03/28 05:02:08;;;;;;;1.33;0.80;;;21.80;29.70;;;;;;5090628;28;20873;-57
2021/03/28 05:04:34;;;;;;;1.50;0.75;;;21.90;29.80;;;;;;5090541;28;20390;-57
2021/03/28 05:07:36;;;;;;;1.60;0.90;;;21.80;29.80;;;;;;5091124;28;20423;-57
2021/03/28 05:10:33;;;;;;;1.40;0.80;;;21.90;29.80;;;;;;5091140;28;20394;-57
2021/03/28 05:13:16;;;;;;;1.52;0.90;;;21.80;29.70;;;;;;5089794;28;20386;-57
2021/03/28 05:16:07;;;;;;;1.25;0.70;;;21.80;29.70;;;;;;5091158;28;20386;-57
2021/03/28 05:19:25;;;;;;;1.50;0.85;;;21.80;29.80;;;;;;5090649;28;20479;-57
2021/03/28 05:22:16;;;;;;;1.17;0.70;;;21.80;29.70;;;;;;5075771;28;20468;-57
2021/03/28 05:25:02;;;;;;;1.40;0.70;;;21.80;29.80;;;;;;5094315;28;20919;-57
2021/03/28 05:27:49;;;;;;;1.00;0.70;;;21.80;29.70;;;;;;5094512;28;20386;-57
2021/03/28 05:30:52;;;;;;;1.55;0.70;;;21.80;29.70;;;;;;5094193;28;20382;-57
2021/03/28 05:33:45;;;;;;;1.48;0.93;;;21.80;29.70;;;;;;5094277;28;20386;-57
2021/03/28 05:36:40;;;;;;;1.40;0.80;;;21.80;29.70;;;;;;5093134;28;20382;-57
2021/03/28 05:39:43;;;;;;;1.50;0.80;;;21.80;29.70;;;;;;5094388;28;20394;-57
2021/03/28 05:42:09;;;;;;;1.40;0.70;;;21.80;29.70;;;;;;5094119;28;20501;-57
2021/03/28 05:44:37;;;;;;;1.20;0.70;;;21.80;29.70;;;;;;5093723;28;20492;-56
2021/03/28 05:47:34;;;;;;;1.23;0.70;;;21.80;29.60;;;;;;5094344;28;20962;-57
2021/03/28 05:50:35;;;;;;;1.27;0.85;;;21.80;29.60;;;;;;5094230;28;20390;-57
2021/03/28 05:53:16;;;;;;;1.50;0.90;;;21.80;29.60;;;;;;5093788;28;20401;-57
2021/03/28 05:56:22;;;;;;;1.25;0.75;;;21.80;29.70;;;;;;5094072;28;20719;-57
2021/03/28 05:58:57;;;;;;;1.65;0.80;;;21.80;29.60;;;;;;5093755;28;20440;-57
2021/03/28 06:01:41;;;;;;;1.27;0.80;;;21.80;29.70;;;;;;5093866;28;20449;-58
2021/03/28 06:04:53;;;;;;;1.17;0.70;;;21.80;29.60;;;;;;5093657;28;20386;-57
2021/03/28 06:07:56;;;;;;;1.20;0.70;;;21.80;29.60;;;;;;5093915;28;20378;-58
2021/03/28 06:10:40;;;;;;;1.38;0.90;;;21.80;29.60;;;;;;5093671;28;20877;-58
2021/03/28 06:13:34;;;;;;;1.42;0.73;;;21.80;29.60;;;;;;5093779;28;20440;-58
2021/03/28 06:16:28;;;;;;;1.42;0.75;;;21.80;29.60;;;;;;5093729;28;20392;-58
2021/03/28 06:19:11;;;;;;;2.53;0.90;;;21.70;29.60;;;;;;5093404;28;20436;-58
2021/03/28 06:22:10;;;;;;;1.90;0.90;;;21.70;29.80;;;;;;5093388;28;20591;-58
2021/03/28 06:24:57;;;;;;;2.00;0.80;;;21.70;29.20;;;;;;5093519;28;20390;-59
2021/03/28 06:27:50;;;;;;;2.13;0.80;;;21.70;29.50;;;;;;5093461;28;20385;-59
2021/03/28 06:30:34;;;;;;;1.40;0.77;;;21.60;29.90;;;;;;5093602;28;20378;-58
2021/03/28 06:33:21;;;;;;;1.55;0.90;;;21.60;29.70;;;;;;5092837;28;20390;-58
2021/03/28 06:36:23;;;;;;;2.47;0.73;;;21.50;29.70;;;;;;5092749;28;20379;-58
2021/03/28 06:39:16;;;;;;;2.05;0.85;;;21.50;29.80;;;;;;5092638;28;20742;-59
2021/03/28 06:42:09;;;;;;;2.33;0.93;;;21.50;30.00;;;;;;5093108;28;20500;-58
2021/03/28 06:45:14;;;;;;;3.07;0.90;;;21.50;30.10;;;;;;5092606;28;20402;-60
2021/03/28 06:48:17;;;;;;;1.70;0.80;;;21.50;30.10;;;;;;5093008;28;20394;-58
2021/03/28 06:50:58;;;;;;;3.70;0.77;;;21.50;30.10;;;;;;5092549;28;20390;-59
2021/03/28 06:53:27;;;;;;;2.28;0.88;;;21.50;30.10;;;;;;5095556;28;20380;-64
2021/03/28 06:56:31;;;;;;;6.43;1.08;;;21.50;30.30;;;;;;5111453;28;20392;-60
2021/03/28 06:59:34;;;;;;;2.33;0.80;;;21.50;30.50;;;;;;5088572;28;20781;-59
2021/03/28 07:02:26;;;;;;;3.33;0.80;;;21.40;30.70;;;;;;5098349;28;20488;-58
2021/03/28 07:05:15;;;;;;;4.97;0.88;;;21.40;30.70;;;;;;5112105;28;20420;-59
2021/03/28 07:08:11;;;;;;;4.57;0.90;;;21.40;30.80;;;;;;5109352;28;20883;-58
2021/03/28 07:11:03;;;;;;;6.32;0.88;;;21.40;31.00;;;;;;5110366;28;20384;-59
2021/03/28 07:14:06;;;;;;;9.40;1.00;;;21.40;31.10;;;;;;5112689;28;20868;-58
2021/03/28 07:17:04;;;;;;;2.95;0.90;;;21.40;31.20;;;;;;5095255;28;20380;-58
2021/03/28 07:20:07;;;;;;;4.65;0.90;;;21.40;31.20;;;;;;5111662;28;20381;-59
2021/03/28 07:23:00;;;;;;;7.38;1.05;;;21.40;31.50;;;;;;5112158;28;20444;-59
2021/03/28 07:25:32;;;;;;;4.97;0.80;;;21.40;31.50;;;;;;5112416;28;20380;-58
2021/03/28 07:28:19;;;;;;;4.30;1.00;;;21.40;31.60;;;;;;5112556;28;20388;-58
2021/03/28 07:31:08;;;;;;;3.83;1.20;;;21.40;31.60;;;;;;5111905;28;20408;-58
2021/03/28 07:33:49;;;;;;;3.03;0.80;;;21.40;31.60;;;;;;5112248;28;20463;-58
2021/03/28 07:36:41;;;;;;;3.47;0.90;;;21.40;31.50;;;;;;5112279;28;20468;-58
2021/03/28 07:39:46;;;;;;;3.05;0.90;;;21.40;31.70;;;;;;5112190;28;20471;-58
2021/03/28 07:42:45;;;;;;;2.83;1.02;;;21.40;31.70;;;;;;5098486;28;20420;-58
2021/03/28 07:46:03;;;;;;;2.95;0.80;;;21.40;32.10;;;;;;5112141;28;20384;-58
2021/03/28 07:49:06;;;;;;;2.25;0.80;;;21.50;32.50;;;;;;5078330;28;20396;-58
2021/03/28 07:52:18;;;;;;;5.57;1.00;;;21.50;32.40;;;;;;5102776;28;20384;-58
2021/03/28 07:55:39;;;;;;;3.20;0.80;;;21.50;32.10;;;;;;5063823;27;20396;-58
2021/03/28 07:58:23;;;;;;;3.60;0.90;;;21.60;32.30;;;;;;5045440;28;20441;-58
2021/03/28 08:01:21;;;;;;;3.00;0.77;;;21.60;32.10;;;;;;5109444;28;20479;-58
2021/03/28 08:04:10;;;;;;;2.80;0.90;;;21.60;31.50;;;;;;5099983;28;20414;-58
2021/03/28 08:06:50;;;;;;;2.78;1.10;;;21.70;31.90;;;;;;5101072;28;20382;-66
2021/03/28 08:09:40;;;;;;;2.60;0.85;;;21.70;32.10;;;;;;5102377;28;20429;-58
2021/03/28 08:12:26;;;;;;;4.15;0.90;;;21.70;31.80;;;;;;5112031;28;20384;-57
2021/03/28 08:15:10;;;;;;;3.40;0.80;;;21.80;33.40;;;;;;5104118;28;20402;-58
2021/03/28 08:17:57;;;;;;;4.05;0.80;;;21.80;33.50;;;;;;5111816;28;20388;-58
2021/03/28 08:21:00;;;;;;;4.97;0.93;;;21.90;33.30;;;;;;5111977;28;20467;-58
2021/03/28 08:23:57;;;;;;;3.88;0.70;;;21.90;33.00;;;;;;5111846;28;20796;-58
2021/03/28 08:26:44;;;;;;;2.13;0.80;;;22.00;32.30;;;;;;5099736;28;20875;-60
2021/03/28 08:29:47;;;;;;;3.42;0.88;;;22.10;32.90;;;;;;5095160;28;20398;-58
2021/03/28 08:33:10;;;;;;;5.65;0.80;;;22.10;32.70;;;;;;5090035;28;20407;-58
2021/03/28 08:36:04;;;;;;;4.95;0.68;;;22.20;33.10;;;;;;5032292;28;20397;-57
2021/03/28 08:39:07;;;;;;;4.10;0.80;;;22.30;32.70;;;;;;5049026;28;20845;-57
2021/03/28 08:41:57;;;;;;;2.53;0.90;;;22.50;32.50;;;;;;5091391;28;20496;-60
2021/03/28 08:44:58;;;;;;;3.00;0.90;;;22.60;32.20;;;;;;5091136;28;20464;-57
2021/03/28 08:47:35;;;;;;;6.78;1.30;;;22.70;32.20;;;;;;5088887;28;20410;-57
2021/03/28 08:50:25;;;;;;;5.65;1.15;;;22.60;31.60;;;;;;5091184;28;20401;-58
2021/03/28 08:53:16;;;;;;;5.18;1.00;;;22.60;31.30;;;;;;5090773;28;20370;-58
2021/03/28 08:56:07;;;;;;;6.57;0.80;;;22.60;31.10;;;;;;5094449;28;20500;-57
2021/03/28 08:58:47;;;;;;;3.72;0.82;;;22.70;30.70;;;;;;5095426;28;20413;-57
2021/03/28 09:02:00;;;;;;;4.53;1.00;;;22.70;30.90;;;;;;5102694;28;20402;-58
2021/03/28 09:05:07;;;;;;;3.90;0.80;;;22.70;30.80;;;;;;5076667;28;20479;-58
2021/03/28 09:07:42;;;;;;;5.97;1.10;;;22.80;30.90;;;;;;5068085;27;20481;-57
2021/03/28 09:10:21;;;;;;;5.13;1.20;;;22.80;31.00;;;;;;5103297;28;20385;-57
2021/03/28 09:12:54;;;;;;;5.82;1.08;;;22.80;30.40;;;;;;5103721;28;20393;-57
2021/03/28 09:15:43;;;;;;;4.13;0.90;;;22.80;30.00;;;;;;5102434;28;20382;-57
2021/03/28 09:18:27;;;;;;;4.33;0.80;;;22.90;29.70;;;;;;5102934;28;20729;-57
2021/03/28 09:21:04;;;;;;;3.93;0.90;;;23.00;29.80;;;;;;5102522;28;20452;-57
2021/03/28 09:24:03;;;;;;;3.25;0.75;;;23.00;29.80;;;;;;5102606;28;20394;-58
2021/03/28 09:26:35;;;;;;;4.15;0.80;;;23.10;29.80;;;;;;5101329;28;20397;-58
2021/03/28 09:29:35;;;;;;;2.67;0.90;;;23.10;29.80;;;;;;5101053;28;20616;-58
2021/03/28 09:32:27;;;;;;;3.77;1.00;;;23.10;29.80;;;;;;5069203;28;20427;-58
2021/03/28 09:35:26;;;;;;;3.55;0.80;;;23.20;29.80;;;;;;5096963;28;20413;-57
2021/03/28 09:38:12;;;;;;;2.92;0.88;;;23.30;29.80;;;;;;5103014;28;20390;-57
2021/03/28 09:40:58;;;;;;;1.97;0.63;;;23.30;29.70;;;;;;5101324;28;20378;-57
2021/03/28 09:43:48;;;;;;;7.35;0.80;;;23.30;29.40;;;;;;5104145;28;20410;-57
2021/03/28 09:46:30;;;;;;;5.85;1.17;;;23.30;29.60;;;;;;5092389;28;20382;-58
2021/03/28 09:49:19;;;;;;;4.38;0.80;;;23.30;29.70;;;;;;5098959;28;20426;-58
2021/03/28 09:51:48;;;;;;;4.80;0.73;;;23.30;29.40;;;;;;5102697;28;20372;-58
2021/03/28 09:54:22;;;;;;;2.95;0.80;;;23.30;29.40;;;;;;5101884;28;20469;-58
2021/03/28 09:57:11;;;;;;;3.78;0.70;;;23.40;29.60;;;;;;5104491;28;20395;-58
2021/03/28 09:59:43;;;;;;;3.80;0.80;;;23.40;29.60;;;;;;5109152;27;20471;-58
2021/03/28 10:02:43;;;;;;;2.35;0.70;;;23.40;29.40;;;;;;5108955;28;20981;-58
2021/03/28 10:05:21;;;;;;;3.30;0.80;;;23.40;29.40;;;;;;5108902;28;20475;-58
2021/03/28 10:07:56;;;;;;;3.72;0.70;;;23.50;29.30;;;;;;5097491;28;20386;-58
2021/03/28 10:10:26;;;;;;;1.83;0.60;;;23.50;29.30;;;;;;5098616;28;20394;-57
2021/03/28 10:13:21;;;;;;;1.88;0.50;;;23.50;29.20;;;;;;5098194;28;20384;-57
2021/03/28 10:16:25;;;;;;;2.35;0.70;;;23.60;29.10;;;;;;5099143;28;20394;-58
2021/03/28 10:19:17;;;;;;;2.17;0.60;;;23.60;29.30;;;;;;5048046;28;20877;-58
2021/03/28 10:22:04;;;;;;;2.60;0.80;;;23.60;29.20;;;;;;5102972;28;20415;-57
2021/03/28 10:25:04;;;;;;;2.20;0.57;;;23.70;29.20;;;;;;5102114;28;20400;-57
2021/03/28 10:27:56;;;;;;;2.63;0.90;;;23.70;29.10;;;;;;5103433;28;20893;-57
2021/03/28 10:30:48;;;;;;;1.90;0.70;;;23.70;28.90;;;;;;5102637;28;20885;-58
2021/03/28 10:33:41;;;;;;;2.07;0.73;;;23.80;28.80;;;;;;5102411;28;20398;-58
2021/03/28 10:36:28;;;;;;;3.03;0.70;;;23.80;28.90;;;;;;5099062;28;20390;-58
2021/03/28 10:39:05;;;;;;;1.73;0.68;;;23.80;28.90;;;;;;5098686;28;20389;-57
2021/03/28 10:41:49;;;;;;;2.20;0.60;;;23.80;29.00;;;;;;5097538;28;20890;-57
2021/03/28 10:44:28;;;;;;;1.50;0.60;;;23.90;29.00;;;;;;5099014;28;20400;-58
2021/03/28 10:47:00;;;;;;;1.83;0.57;;;23.90;29.10;;;;;;5098815;28;20878;-58
2021/03/28 10:49:41;;;;;;;2.03;0.60;;;24.00;29.00;;;;;;5098883;28;20407;-59
2021/03/28 10:52:41;;;;;;;2.00;0.55;;;24.00;28.80;;;;;;5098496;28;20402;-58
2021/03/28 10:55:36;;;;;;;2.90;0.60;;;24.00;28.70;;;;;;5097892;28;20395;-58
2021/03/28 10:58:17;;;;;;;2.13;0.57;;;24.00;28.60;;;;;;5101914;28;20380;-58
2021/03/28 11:01:01;;;;;;;1.42;0.60;;;24.10;28.90;;;;;;5101796;28;20368;-58
2021/03/28 11:03:50;;;;;;;1.05;0.50;;;24.10;28.70;;;;;;5100892;28;20424;-58
2021/03/28 11:06:46;;;;;;;1.65;0.70;;;24.10;29.00;;;;;;5097657;28;20420;-59
2021/03/28 11:09:36;;;;;;;1.30;0.50;;;24.20;29.00;;;;;;5097021;28;20899;-58
2021/03/28 11:12:29;;;;;;;1.50;0.55;;;24.20;28.90;;;;;;5101661;28;20447;-58
2021/03/28 11:15:07;;;;;;;1.77;0.60;;;24.20;28.80;;;;;;5100901;28;20473;-58
2021/03/28 11:17:51;;;;;;;1.17;0.50;;;24.20;29.00;;;;;;5096641;28;20468;-58
2021/03/28 11:20:41;;;;;;;1.50;0.50;;;24.30;28.50;;;;;;5099080;28;20376;-58
2021/03/28 11:23:17;;;;;;;1.88;0.50;;;24.40;28.80;;;;;;5097822;28;20417;-59
2021/03/28 11:26:06;;;;;;;1.70;0.55;;;24.40;28.60;;;;;;5101428;28;20377;-59
2021/03/28 11:28:53;;;;;;;1.85;0.50;;;24.50;28.60;;;;;;5097143;28;20392;-59
2021/03/28 11:31:36;;;;;;;1.60;0.60;;;24.50;28.70;;;;;;5100762;28;20797;-60
2021/03/28 11:34:28;;;;;;;1.60;0.55;;;24.50;28.60;;;;;;5100956;28;20372;-59
2021/03/28 11:37:01;;;;;;;1.27;0.50;;;24.50;28.40;;;;;;5100483;28;20390;-58
2021/03/28 11:40:05;;;;;;;1.15;0.60;;;24.50;28.40;;;;;;5098283;28;20412;-59
2021/03/28 11:42:32;;;;;;;1.17;0.50;;;24.50;28.50;;;;;;5096681;28;20793;-59
2021/03/28 11:45:01;;;;;;;1.25;0.50;;;24.60;28.50;;;;;;5106431;28;20408;-59
2021/03/28 11:47:29;;;;;;;1.52;0.63;;;24.50;28.50;;;;;;5100914;28;20386;-59
2021/03/28 11:50:00;;;;;;;1.67;0.57;;;24.50;28.60;;;;;;5101107;28;20384;-58
2021/03/28 11:53:02;;;;;;;1.48;0.55;;;24.60;28.60;;;;;;5101036;28;20384;-59
2021/03/28 11:55:33;;;;;;;1.45;0.60;;;24.60;28.50;;;;;;5096367;28;20396;-59
2021/03/28 11:58:07;;;;;;;1.98;0.60;;;24.60;28.30;;;;;;5101899;28;20935;-58
2021/03/28 12:00:44;;;;;;;1.65;0.50;;;24.70;28.40;;;;;;5101494;28;20390;-59
2021/03/28 12:03:19;;;;;;;2.97;0.60;;;24.70;28.50;;;;;;5099328;28;20421;-59
2021/03/28 12:06:06;;;;;;;3.83;0.95;;;24.70;28.40;;;;;;5100290;28;20378;-58
2021/03/28 12:08:52;;;;;;;5.03;0.90;;;24.70;27.60;;;;;;5100795;28;20397;-59
2021/03/28 12:11:46;;;;;;;5.20;0.80;;;24.70;27.20;;;;;;5089610;28;20450;-59
2021/03/28 12:14:31;;;;;;;3.10;0.90;;;24.70;27.70;;;;;;5099811;28;20925;-58
2021/03/28 12:17:09;;;;;;;4.35;0.88;;;24.80;27.80;;;;;;5100973;28;20467;-59
2021/03/28 12:19:47;;;;;;;7.25;0.85;;;24.80;27.50;;;;;;5099866;28;20435;-58
2021/03/28 12:22:21;;;;;;;4.72;0.90;;;24.90;27.40;;;;;;5105772;28;20495;-58
2021/03/28 12:25:05;;;;;;;4.32;0.90;;;25.00;27.40;;;;;;5100035;28;20382;-58
2021/03/28 12:27:57;;;;;;;3.85;1.00;;;25.00;27.30;;;;;;5100102;28;20401;-59
2021/03/28 12:30:29;;;;;;;2.78;0.88;;;25.00;27.40;;;;;;5099457;28;20380;-59
2021/03/28 12:33:09;;;;;;;3.22;0.90;;;25.10;27.30;;;;;;5102789;28;20463;-58
2021/03/28 12:35:56;;;;;;;4.82;0.90;;;25.10;27.10;;;;;;5104197;28;20739;-59
2021/03/28 12:38:28;;;;;;;3.33;0.90;;;25.20;27.20;;;;;;5102330;28;20392;-58
2021/03/28 12:41:15;;;;;;;4.38;0.95;;;25.30;27.00;;;;;;5104819;28;20884;-59
2021/03/28 12:43:44;;;;;;;5.05;1.10;;;25.30;26.60;;;;;;5100770;28;20433;-58
2021/03/28 12:46:31;;;;;;;5.13;1.20;;;25.30;26.50;;;;;;5102627;28;20380;-58
2021/03/28 12:49:08;;;;;;;3.58;0.90;;;25.40;26.70;;;;;;5103405;28;20907;-58
2021/03/28 12:51:47;;;;;;;4.35;1.20;;;25.40;26.40;;;;;;5099436;28;20406;-59
2021/03/28 12:54:35;;;;;;;4.50;1.50;;;25.50;26.60;;;;;;5102792;28;20376;-58
2021/03/28 12:57:23;;;;;;;2.28;1.00;;;25.50;26.60;;;;;;5100902;28;20392;-58
2021/03/28 12:59:49;;;;;;;6.13;1.40;;;25.60;26.60;;;;;;5106067;28;20421;-59
2021/03/28 13:02:23;;;;;;;4.03;0.73;;;25.70;26.70;;;;;;5113437;28;20412;-58
2021/03/28 13:04:59;;;;;;;2.75;0.80;;;25.80;26.80;;;;;;5107402;28;21060;-59
2021/03/28 13:07:51;;;;;;;3.53;0.70;;;25.90;26.70;;;;;;5101276;28;20385;-58
2021/03/28 13:10:30;;;;;;;3.25;0.80;;;25.90;26.80;;;;;;5095834;28;20400;-58
2021/03/28 13:13:10;;;;;;;2.72;0.82;;;25.90;26.40;;;;;;5093504;28;20382;-59
2021/03/28 13:15:44;;;;;;;3.08;0.82;;;26.00;26.60;;;;;;5093662;28;20734;-59
2021/03/28 13:18:19;;;;;;;2.80;0.60;;;26.00;26.30;;;;;;5093351;28;20394;-58
2021/03/28 13:21:14;;;;;;;2.05;0.60;;;26.10;26.10;;;;;;5093375;28;20465;-59
2021/03/28 13:23:54;;;;;;;3.83;0.80;;;26.10;26.00;;;;;;5087185;28;20464;-59
2021/03/28 13:26:29;;;;;;;2.65;0.80;;;26.10;26.10;;;;;;5092671;28;20390;-59
2021/03/28 13:28:56;;;;;;;5.20;1.17;;;26.10;26.30;;;;;;5091509;28;20807;-58
2021/03/28 13:31:39;;;;;;;7.22;1.05;;;26.10;26.30;;;;;;5098089;28;20429;-59
2021/03/28 13:34:46;;;;;;;5.32;1.10;;;26.10;26.40;;;;;;5100901;28;20931;-59
2021/03/28 13:37:24;;;;;;;6.95;1.00;;;26.00;26.80;;;;;;5038616;28;20401;-59
2021/03/28 13:40:11;;;;;;;5.32;0.82;;;25.90;27.00;;;;;;5038799;28;20513;-58
2021/03/28 13:42:50;;;;;;;5.53;0.90;;;25.80;27.10;;;;;;5083512;28;20459;-59
2021/03/28 13:45:16;;;;;;;3.95;0.70;;;25.60;27.00;;;;;;5102411;28;20390;-58
2021/03/28 13:47:46;;;;;;;5.33;0.70;;;25.60;27.20;;;;;;5102966;28;20445;-58
2021/03/28 13:50:30;;;;;;;4.45;0.93;;;25.50;27.60;;;;;;5101617;28;20472;-58
2021/03/28 13:52:56;;;;;;;5.50;0.85;;;25.50;27.90;;;;;;5100709;28;20390;-58
2021/03/28 13:55:33;;;;;;;3.15;0.68;;;25.40;27.90;;;;;;5100182;28;20450;-58
2021/03/28 13:58:33;;;;;;;3.83;0.98;;;25.40;28.10;;;;;;5100846;28;20387;-58
2021/03/28 14:01:16;;;;;;;4.10;0.70;;;25.40;28.10;;;;;;5088118;28;20402;-58
2021/03/28 14:03:43;;;;;;;2.78;0.70;;;25.30;28.20;;;;;;5095028;28;20412;-58
2021/03/28 14:06:26;;;;;;;3.35;0.70;;;25.30;28.20;;;;;;5102587;28;20389;-58
2021/03/28 14:09:10;;;;;;;2.80;0.70;;;25.30;28.30;;;;;;5100474;28;20397;-58
2021/03/28 14:11:45;;;;;;;4.82;0.70;;;25.30;28.40;;;;;;5100035;28;20784;-58
2021/03/28 14:14:23;;;;;;;2.08;0.50;;;25.30;28.50;;;;;;5099185;28;20749;-64
2021/03/28 14:16:51;;;;;;;1.80;0.52;;;25.30;28.40;;;;;;5097213;28;20431;-58
2021/03/28 14:19:33;;;;;;;2.60;0.63;;;25.20;28.50;;;;;;5096550;28;20480;-58
2021/03/28 14:22:20;;;;;;;2.95;0.60;;;25.20;28.40;;;;;;5099438;28;20422;-59
2021/03/28 14:24:56;;;;;;;2.30;0.47;;;25.20;28.50;;;;;;5107967;28;20396;-58
2021/03/28 14:27:34;;;;;;;5.95;0.90;;;26.30;28.60;;;;;;5112281;28;20480;-59